sensor_id;sensor_type;location;lat;lon;timestamp;P1;durP1;ratioP1;P2;durP2;ratioP2
36379;SDS011;22411;53.016;18.632;2023-06-22T00:00:49;17.52;;;15.93;;
36379;SDS011;22411;53.016;18.632;2023-06-22T00:03:29;16.10;;;14.60;;
36379;SDS011;22411;53.016;18.632;2023-06-22T00:05:55;16.30;;;14.52;;
36379;SDS011;22411;53.016;18.632;2023-06-22T00:08:21;15.07;;;13.77;;
36379;SDS011;22411;53.016;18.632;2023-06-22T00:10:47;15.95;;;13.52;;
36379;SDS011;22411;53.016;18.632;2023-06-22T00:13:13;14.60;;;13.18;;
36379;SDS011;22411;53.016;18.632;2023-06-22T00:15:40;14.40;;;12.98;;
36379;SDS011;22411;53.016;18.632;2023-06-22T00:18:07;14.68;;;13.30;;
36379;SDS011;22411;53.016;18.632;2023-06-22T00:20:33;14.25;;;12.93;;
36379;SDS011;22411;53.016;18.632;2023-06-22T00:23:02;14.02;;;12.60;;
36379;SDS011;22411;53.016;18.632;2023-06-22T00:25:36;14.77;;;13.35;;
36379;SDS011;22411;53.016;18.632;2023-06-22T00:28:05;13.85;;;12.65;;
36379;SDS011;22411;53.016;18.632;2023-06-22T00:30:31;14.43;;;13.02;;
36379;SDS011;22411;53.016;18.632;2023-06-22T00:32:57;13.82;;;12.52;;
36379;SDS011;22411;53.016;18.632;2023-06-22T00:35:24;13.95;;;12.73;;
36379;SDS011;22411;53.016;18.632;2023-06-22T00:37:55;15.52;;;14.02;;
36379;SDS011;22411;53.016;18.632;2023-06-22T00:40:31;15.32;;;13.93;;
36379;SDS011;22411;53.016;18.632;2023-06-22T00:42:57;14.50;;;13.20;;
36379;SDS011;22411;53.016;18.632;2023-06-22T00:45:24;15.63;;;14.13;;
36379;SDS011;22411;53.016;18.632;2023-06-22T00:47:55;15.23;;;13.07;;
36379;SDS011;22411;53.016;18.632;2023-06-22T00:50:28;14.25;;;13.00;;
36379;SDS011;22411;53.016;18.632;2023-06-22T00:52:59;14.25;;;12.77;;
36379;SDS011;22411;53.016;18.632;2023-06-22T00:55:51;13.95;;;12.65;;
36379;SDS011;22411;53.016;18.632;2023-06-22T00:58:17;14.60;;;13.27;;
36379;SDS011;22411;53.016;18.632;2023-06-22T01:00:47;14.27;;;12.87;;
36379;SDS011;22411;53.016;18.632;2023-06-22T01:03:12;13.48;;;12.27;;
36379;SDS011;22411;53.016;18.632;2023-06-22T01:05:39;14.65;;;13.10;;
36379;SDS011;22411;53.016;18.632;2023-06-22T01:16:03;13.32;;;11.93;;
36379;SDS011;22411;53.016;18.632;2023-06-22T01:18:33;13.48;;;12.27;;
36379;SDS011;22411;53.016;18.632;2023-06-22T01:21:03;15.20;;;13.77;;
36379;SDS011;22411;53.016;18.632;2023-06-22T01:24:10;16.92;;;12.68;;
36379;SDS011;22411;53.016;18.632;2023-06-22T01:29:55;12.85;;;11.18;;
36379;SDS011;22411;53.016;18.632;2023-06-22T01:32:28;13.65;;;12.32;;
36379;SDS011;22411;53.016;18.632;2023-06-22T01:35:01;14.90;;;13.38;;
36379;SDS011;22411;53.016;18.632;2023-06-22T01:37:30;14.32;;;13.02;;
36379;SDS011;22411;53.016;18.632;2023-06-22T01:39:57;14.13;;;12.82;;
36379;SDS011;22411;53.016;18.632;2023-06-22T01:42:24;13.48;;;12.27;;
36379;SDS011;22411;53.016;18.632;2023-06-22T01:44:51;14.57;;;13.07;;
36379;SDS011;22411;53.016;18.632;2023-06-22T01:47:18;14.95;;;12.75;;
36379;SDS011;22411;53.016;18.632;2023-06-22T01:49:45;13.10;;;11.80;;
36379;SDS011;22411;53.016;18.632;2023-06-22T01:52:12;18.48;;;12.00;;
36379;SDS011;22411;53.016;18.632;2023-06-22T01:54:38;12.65;;;11.38;;
36379;SDS011;22411;53.016;18.632;2023-06-22T01:57:05;12.77;;;11.55;;
36379;SDS011;22411;53.016;18.632;2023-06-22T01:59:37;12.57;;;11.38;;
36379;SDS011;22411;53.016;18.632;2023-06-22T02:02:10;13.32;;;11.70;;
36379;SDS011;22411;53.016;18.632;2023-06-22T02:04:43;14.23;;;11.13;;
36379;SDS011;22411;53.016;18.632;2023-06-22T02:07:13;12.25;;;11.15;;
36379;SDS011;22411;53.016;18.632;2023-06-22T02:09:43;12.65;;;11.45;;
36379;SDS011;22411;53.016;18.632;2023-06-22T02:12:11;14.07;;;12.07;;
36379;SDS011;22411;53.016;18.632;2023-06-22T02:14:39;13.32;;;12.05;;
36379;SDS011;22411;53.016;18.632;2023-06-22T02:17:05;12.63;;;11.45;;
36379;SDS011;22411;53.016;18.632;2023-06-22T02:19:35;13.13;;;11.98;;
36379;SDS011;22411;53.016;18.632;2023-06-22T02:22:02;13.40;;;12.20;;
36379;SDS011;22411;53.016;18.632;2023-06-22T02:24:29;12.50;;;11.32;;
36379;SDS011;22411;53.016;18.632;2023-06-22T02:26:57;12.57;;;11.43;;
36379;SDS011;22411;53.016;18.632;2023-06-22T02:29:23;13.80;;;12.50;;
36379;SDS011;22411;53.016;18.632;2023-06-22T02:31:49;13.20;;;11.85;;
36379;SDS011;22411;53.016;18.632;2023-06-22T02:34:14;14.23;;;12.82;;
36379;SDS011;22411;53.016;18.632;2023-06-22T02:36:46;13.82;;;12.43;;
36379;SDS011;22411;53.016;18.632;2023-06-22T02:39:18;13.20;;;12.07;;
36379;SDS011;22411;53.016;18.632;2023-06-22T02:41:45;14.50;;;11.65;;
36379;SDS011;22411;53.016;18.632;2023-06-22T02:44:10;13.07;;;11.75;;
36379;SDS011;22411;53.016;18.632;2023-06-22T02:46:36;12.93;;;11.10;;
36379;SDS011;22411;53.016;18.632;2023-06-22T02:49:02;11.68;;;10.63;;
36379;SDS011;22411;53.016;18.632;2023-06-22T02:51:27;12.27;;;11.07;;
36379;SDS011;22411;53.016;18.632;2023-06-22T02:53:53;12.48;;;11.20;;
36379;SDS011;22411;53.016;18.632;2023-06-22T02:56:23;11.65;;;10.48;;
36379;SDS011;22411;53.016;18.632;2023-06-22T02:58:50;13.18;;;10.30;;
36379;SDS011;22411;53.016;18.632;2023-06-22T03:01:17;11.63;;;10.20;;
36379;SDS011;22411;53.016;18.632;2023-06-22T03:03:49;11.38;;;10.30;;
36379;SDS011;22411;53.016;18.632;2023-06-22T03:06:15;10.57;;;9.52;;
36379;SDS011;22411;53.016;18.632;2023-06-22T03:08:40;11.27;;;10.18;;
36379;SDS011;22411;53.016;18.632;2023-06-22T03:11:09;9.50;;;8.60;;
36379;SDS011;22411;53.016;18.632;2023-06-22T03:13:35;9.70;;;8.70;;
36379;SDS011;22411;53.016;18.632;2023-06-22T03:16:00;10.13;;;9.20;;
36379;SDS011;22411;53.016;18.632;2023-06-22T03:18:26;10.10;;;9.15;;
36379;SDS011;22411;53.016;18.632;2023-06-22T03:20:52;9.18;;;8.25;;
36379;SDS011;22411;53.016;18.632;2023-06-22T03:23:17;11.68;;;10.32;;
36379;SDS011;22411;53.016;18.632;2023-06-22T03:25:43;11.25;;;8.70;;
36379;SDS011;22411;53.016;18.632;2023-06-22T03:28:12;9.18;;;8.27;;
36379;SDS011;22411;53.016;18.632;2023-06-22T03:30:38;9.45;;;8.55;;
36379;SDS011;22411;53.016;18.632;2023-06-22T03:33:03;11.48;;;8.43;;
36379;SDS011;22411;53.016;18.632;2023-06-22T03:35:29;10.00;;;9.00;;
36379;SDS011;22411;53.016;18.632;2023-06-22T03:37:54;9.65;;;8.60;;
36379;SDS011;22411;53.016;18.632;2023-06-22T03:40:20;11.13;;;9.57;;
36379;SDS011;22411;53.016;18.632;2023-06-22T03:42:46;9.77;;;8.88;;
36379;SDS011;22411;53.016;18.632;2023-06-22T03:45:12;12.18;;;8.93;;
36379;SDS011;22411;53.016;18.632;2023-06-22T03:47:37;13.73;;;8.75;;
36379;SDS011;22411;53.016;18.632;2023-06-22T03:50:03;10.15;;;9.05;;
36379;SDS011;22411;53.016;18.632;2023-06-22T03:52:29;9.40;;;8.45;;
36379;SDS011;22411;53.016;18.632;2023-06-22T03:54:55;10.38;;;7.07;;
36379;SDS011;22411;53.016;18.632;2023-06-22T03:57:21;10.98;;;8.13;;
36379;SDS011;22411;53.016;18.632;2023-06-22T03:59:47;8.77;;;7.85;;
36379;SDS011;22411;53.016;18.632;2023-06-22T04:02:12;10.88;;;7.47;;
36379;SDS011;22411;53.016;18.632;2023-06-22T04:04:38;8.85;;;7.20;;
36379;SDS011;22411;53.016;18.632;2023-06-22T04:07:04;7.80;;;7.13;;
36379;SDS011;22411;53.016;18.632;2023-06-22T04:09:31;11.75;;;7.47;;
36379;SDS011;22411;53.016;18.632;2023-06-22T04:11:56;7.75;;;6.97;;
36379;SDS011;22411;53.016;18.632;2023-06-22T04:14:22;7.38;;;6.68;;
36379;SDS011;22411;53.016;18.632;2023-06-22T04:16:47;6.80;;;6.20;;
36379;SDS011;22411;53.016;18.632;2023-06-22T04:19:13;12.25;;;7.03;;
36379;SDS011;22411;53.016;18.632;2023-06-22T04:21:42;8.65;;;6.72;;
36379;SDS011;22411;53.016;18.632;2023-06-22T04:24:10;11.73;;;6.50;;
36379;SDS011;22411;53.016;18.632;2023-06-22T04:26:39;8.55;;;6.72;;
36379;SDS011;22411;53.016;18.632;2023-06-22T04:29:07;9.00;;;6.90;;
36379;SDS011;22411;53.016;18.632;2023-06-22T04:31:34;8.85;;;7.30;;
36379;SDS011;22411;53.016;18.632;2023-06-22T04:34:03;9.02;;;7.38;;
36379;SDS011;22411;53.016;18.632;2023-06-22T04:36:36;10.50;;;8.13;;
36379;SDS011;22411;53.016;18.632;2023-06-22T04:39:04;7.13;;;6.47;;
36379;SDS011;22411;53.016;18.632;2023-06-22T04:41:31;8.68;;;6.22;;
36379;SDS011;22411;53.016;18.632;2023-06-22T04:46:39;7.22;;;5.97;;
36379;SDS011;22411;53.016;18.632;2023-06-22T04:49:09;10.10;;;6.88;;
36379;SDS011;22411;53.016;18.632;2023-06-22T04:51:38;9.48;;;6.68;;
36379;SDS011;22411;53.016;18.632;2023-06-22T04:54:05;8.93;;;6.40;;
36379;SDS011;22411;53.016;18.632;2023-06-22T04:56:31;10.05;;;7.55;;
36379;SDS011;22411;53.016;18.632;2023-06-22T04:58:58;10.77;;;6.57;;
36379;SDS011;22411;53.016;18.632;2023-06-22T05:01:23;7.53;;;6.82;;
36379;SDS011;22411;53.016;18.632;2023-06-22T05:03:51;8.13;;;6.38;;
36379;SDS011;22411;53.016;18.632;2023-06-22T05:06:24;8.27;;;6.60;;
36379;SDS011;22411;53.016;18.632;2023-06-22T05:08:53;11.27;;;7.45;;
36379;SDS011;22411;53.016;18.632;2023-06-22T05:11:26;9.55;;;7.28;;
36379;SDS011;22411;53.016;18.632;2023-06-22T05:13:52;9.57;;;7.13;;
36379;SDS011;22411;53.016;18.632;2023-06-22T05:16:19;8.23;;;6.93;;
36379;SDS011;22411;53.016;18.632;2023-06-22T05:21:26;8.65;;;7.60;;
36379;SDS011;22411;53.016;18.632;2023-06-22T05:23:53;9.98;;;7.55;;
36379;SDS011;22411;53.016;18.632;2023-06-22T05:26:20;8.95;;;6.75;;
36379;SDS011;22411;53.016;18.632;2023-06-22T05:28:46;8.73;;;7.60;;
36379;SDS011;22411;53.016;18.632;2023-06-22T05:31:13;11.23;;;7.93;;
36379;SDS011;22411;53.016;18.632;2023-06-22T05:33:43;11.60;;;7.73;;
36379;SDS011;22411;53.016;18.632;2023-06-22T05:36:09;11.93;;;7.93;;
36379;SDS011;22411;53.016;18.632;2023-06-22T05:38:36;9.93;;;6.97;;
36379;SDS011;22411;53.016;18.632;2023-06-22T05:41:02;11.40;;;8.13;;
36379;SDS011;22411;53.016;18.632;2023-06-22T05:43:28;8.57;;;6.80;;
36379;SDS011;22411;53.016;18.632;2023-06-22T05:45:54;7.50;;;6.47;;
36379;SDS011;22411;53.016;18.632;2023-06-22T05:48:20;7.60;;;6.80;;
36379;SDS011;22411;53.016;18.632;2023-06-22T05:50:45;6.93;;;6.22;;
36379;SDS011;22411;53.016;18.632;2023-06-22T05:53:11;7.97;;;7.20;;
36379;SDS011;22411;53.016;18.632;2023-06-22T05:55:37;7.45;;;6.75;;
36379;SDS011;22411;53.016;18.632;2023-06-22T05:58:02;9.80;;;6.53;;
36379;SDS011;22411;53.016;18.632;2023-06-22T06:00:31;11.70;;;7.20;;
36379;SDS011;22411;53.016;18.632;2023-06-22T06:02:57;9.88;;;6.60;;
36379;SDS011;22411;53.016;18.632;2023-06-22T06:05:28;9.65;;;7.57;;
36379;SDS011;22411;53.016;18.632;2023-06-22T06:07:55;9.45;;;6.88;;
36379;SDS011;22411;53.016;18.632;2023-06-22T06:10:21;7.80;;;6.88;;
36379;SDS011;22411;53.016;18.632;2023-06-22T06:12:46;6.60;;;5.95;;
36379;SDS011;22411;53.016;18.632;2023-06-22T06:15:12;8.38;;;6.47;;
36379;SDS011;22411;53.016;18.632;2023-06-22T06:17:47;10.90;;;7.72;;
36379;SDS011;22411;53.016;18.632;2023-06-22T06:20:14;8.00;;;6.47;;
36379;SDS011;22411;53.016;18.632;2023-06-22T06:22:40;7.80;;;5.95;;
36379;SDS011;22411;53.016;18.632;2023-06-22T06:25:07;8.45;;;5.78;;
36379;SDS011;22411;53.016;18.632;2023-06-22T06:27:34;8.73;;;5.45;;
36379;SDS011;22411;53.016;18.632;2023-06-22T06:29:59;9.23;;;6.18;;
36379;SDS011;22411;53.016;18.632;2023-06-22T06:32:25;6.13;;;5.30;;
36379;SDS011;22411;53.016;18.632;2023-06-22T06:34:51;9.45;;;5.07;;
36379;SDS011;22411;53.016;18.632;2023-06-22T06:37:17;7.10;;;6.07;;
36379;SDS011;22411;53.016;18.632;2023-06-22T06:39:43;8.68;;;5.40;;
36379;SDS011;22411;53.016;18.632;2023-06-22T06:42:10;9.77;;;5.22;;
36379;SDS011;22411;53.016;18.632;2023-06-22T06:44:36;6.25;;;4.93;;
36379;SDS011;22411;53.016;18.632;2023-06-22T06:47:03;8.60;;;5.28;;
36379;SDS011;22411;53.016;18.632;2023-06-22T06:49:29;7.88;;;5.82;;
36379;SDS011;22411;53.016;18.632;2023-06-22T06:51:55;6.45;;;5.68;;
36379;SDS011;22411;53.016;18.632;2023-06-22T06:54:21;7.38;;;4.75;;
36379;SDS011;22411;53.016;18.632;2023-06-22T06:56:47;8.65;;;4.78;;
36379;SDS011;22411;53.016;18.632;2023-06-22T06:59:14;8.52;;;5.35;;
36379;SDS011;22411;53.016;18.632;2023-06-22T07:01:41;8.68;;;5.32;;
36379;SDS011;22411;53.016;18.632;2023-06-22T07:04:07;7.90;;;4.55;;
36379;SDS011;22411;53.016;18.632;2023-06-22T07:06:32;9.77;;;4.93;;
36379;SDS011;22411;53.016;18.632;2023-06-22T07:08:59;5.70;;;4.65;;
36379;SDS011;22411;53.016;18.632;2023-06-22T07:11:25;12.30;;;4.70;;
36379;SDS011;22411;53.016;18.632;2023-06-22T07:13:51;4.55;;;4.15;;
36379;SDS011;22411;53.016;18.632;2023-06-22T07:16:16;7.13;;;4.68;;
36379;SDS011;22411;53.016;18.632;2023-06-22T07:18:42;7.85;;;4.15;;
36379;SDS011;22411;53.016;18.632;2023-06-22T07:21:08;6.28;;;4.28;;
36379;SDS011;22411;53.016;18.632;2023-06-22T07:23:34;5.57;;;4.70;;
36379;SDS011;22411;53.016;18.632;2023-06-22T07:26:00;4.40;;;3.95;;
36379;SDS011;22411;53.016;18.632;2023-06-22T07:28:27;6.80;;;3.78;;
36379;SDS011;22411;53.016;18.632;2023-06-22T07:30:53;7.30;;;3.65;;
36379;SDS011;22411;53.016;18.632;2023-06-22T07:33:18;6.13;;;4.10;;
36379;SDS011;22411;53.016;18.632;2023-06-22T07:35:45;5.47;;;3.38;;
36379;SDS011;22411;53.016;18.632;2023-06-22T07:38:12;5.72;;;3.70;;
36379;SDS011;22411;53.016;18.632;2023-06-22T07:40:38;8.95;;;4.45;;
36379;SDS011;22411;53.016;18.632;2023-06-22T07:43:03;3.97;;;3.15;;
36379;SDS011;22411;53.016;18.632;2023-06-22T07:45:29;4.28;;;2.47;;
36379;SDS011;22411;53.016;18.632;2023-06-22T07:47:55;3.25;;;1.60;;
36379;SDS011;22411;53.016;18.632;2023-06-22T07:50:20;2.53;;;1.60;;
36379;SDS011;22411;53.016;18.632;2023-06-22T07:52:46;4.40;;;1.80;;
36379;SDS011;22411;53.016;18.632;2023-06-22T07:55:13;3.20;;;1.00;;
36379;SDS011;22411;53.016;18.632;2023-06-22T07:57:39;1.83;;;1.05;;
36379;SDS011;22411;53.016;18.632;2023-06-22T08:00:05;3.90;;;1.02;;
36379;SDS011;22411;53.016;18.632;2023-06-22T08:02:38;2.05;;;1.55;;
36379;SDS011;22411;53.016;18.632;2023-06-22T08:05:04;5.63;;;1.90;;
36379;SDS011;22411;53.016;18.632;2023-06-22T08:07:32;2.83;;;1.63;;
36379;SDS011;22411;53.016;18.632;2023-06-22T08:09:58;3.33;;;1.40;;
36379;SDS011;22411;53.016;18.632;2023-06-22T08:12:24;2.90;;;1.20;;
36379;SDS011;22411;53.016;18.632;2023-06-22T08:14:50;3.10;;;1.23;;
36379;SDS011;22411;53.016;18.632;2023-06-22T08:17:15;1.73;;;1.10;;
36379;SDS011;22411;53.016;18.632;2023-06-22T08:19:41;2.85;;;1.00;;
36379;SDS011;22411;53.016;18.632;2023-06-22T08:22:07;3.80;;;1.80;;
36379;SDS011;22411;53.016;18.632;2023-06-22T08:24:32;2.63;;;1.52;;
36379;SDS011;22411;53.016;18.632;2023-06-22T08:26:58;5.28;;;1.30;;
36379;SDS011;22411;53.016;18.632;2023-06-22T08:29:24;2.30;;;0.90;;
36379;SDS011;22411;53.016;18.632;2023-06-22T08:31:50;4.35;;;2.60;;
36379;SDS011;22411;53.016;18.632;2023-06-22T08:34:15;3.30;;;0.98;;
36379;SDS011;22411;53.016;18.632;2023-06-22T08:36:43;2.55;;;1.27;;
36379;SDS011;22411;53.016;18.632;2023-06-22T08:39:14;1.77;;;1.23;;
36379;SDS011;22411;53.016;18.632;2023-06-22T08:41:39;4.45;;;1.38;;
36379;SDS011;22411;53.016;18.632;2023-06-22T08:44:05;4.70;;;1.40;;
36379;SDS011;22411;53.016;18.632;2023-06-22T08:46:31;2.92;;;1.70;;
36379;SDS011;22411;53.016;18.632;2023-06-22T08:48:59;2.08;;;1.10;;
36379;SDS011;22411;53.016;18.632;2023-06-22T08:51:25;2.47;;;1.13;;
36379;SDS011;22411;53.016;18.632;2023-06-22T08:53:51;4.32;;;1.50;;
36379;SDS011;22411;53.016;18.632;2023-06-22T08:56:16;3.88;;;1.27;;
36379;SDS011;22411;53.016;18.632;2023-06-22T08:58:42;3.72;;;1.30;;
36379;SDS011;22411;53.016;18.632;2023-06-22T09:01:08;1.60;;;0.85;;
36379;SDS011;22411;53.016;18.632;2023-06-22T09:03:34;1.52;;;1.05;;
36379;SDS011;22411;53.016;18.632;2023-06-22T09:06:01;2.08;;;1.20;;
36379;SDS011;22411;53.016;18.632;2023-06-22T09:08:27;1.02;;;0.63;;
36379;SDS011;22411;53.016;18.632;2023-06-22T09:10:53;1.58;;;0.50;;
36379;SDS011;22411;53.016;18.632;2023-06-22T09:13:18;3.60;;;1.20;;
36379;SDS011;22411;53.016;18.632;2023-06-22T09:15:44;2.33;;;1.27;;
36379;SDS011;22411;53.016;18.632;2023-06-22T09:18:10;1.85;;;0.85;;
36379;SDS011;22411;53.016;18.632;2023-06-22T09:20:36;4.65;;;1.40;;
36379;SDS011;22411;53.016;18.632;2023-06-22T09:23:02;2.58;;;0.95;;
36379;SDS011;22411;53.016;18.632;2023-06-22T09:25:28;1.75;;;0.85;;
36379;SDS011;22411;53.016;18.632;2023-06-22T09:27:53;6.13;;;1.98;;
36379;SDS011;22411;53.016;18.632;2023-06-22T09:30:19;2.58;;;1.15;;
36379;SDS011;22411;53.016;18.632;2023-06-22T09:32:45;3.25;;;1.30;;
36379;SDS011;22411;53.016;18.632;2023-06-22T09:35:11;2.05;;;1.27;;
36379;SDS011;22411;53.016;18.632;2023-06-22T09:37:39;2.22;;;1.23;;
36379;SDS011;22411;53.016;18.632;2023-06-22T09:40:06;3.95;;;1.02;;
36379;SDS011;22411;53.016;18.632;2023-06-22T09:42:36;3.00;;;0.90;;
36379;SDS011;22411;53.016;18.632;2023-06-22T09:45:02;2.58;;;1.02;;
36379;SDS011;22411;53.016;18.632;2023-06-22T09:47:29;2.70;;;1.17;;
36379;SDS011;22411;53.016;18.632;2023-06-22T09:49:54;2.10;;;0.90;;
36379;SDS011;22411;53.016;18.632;2023-06-22T09:52:21;1.88;;;0.85;;
36379;SDS011;22411;53.016;18.632;2023-06-22T09:54:47;2.55;;;0.68;;
36379;SDS011;22411;53.016;18.632;2023-06-22T09:57:13;4.20;;;1.05;;
36379;SDS011;22411;53.016;18.632;2023-06-22T09:59:39;1.75;;;0.98;;
36379;SDS011;22411;53.016;18.632;2023-06-22T10:02:05;3.25;;;1.20;;
36379;SDS011;22411;53.016;18.632;2023-06-22T10:04:33;2.20;;;1.00;;
36379;SDS011;22411;53.016;18.632;2023-06-22T10:06:59;2.55;;;0.60;;
36379;SDS011;22411;53.016;18.632;2023-06-22T10:09:26;2.58;;;1.08;;
36379;SDS011;22411;53.016;18.632;2023-06-22T10:11:52;1.73;;;0.70;;
36379;SDS011;22411;53.016;18.632;2023-06-22T10:14:17;1.20;;;0.50;;
36379;SDS011;22411;53.016;18.632;2023-06-22T10:16:43;3.35;;;0.68;;
36379;SDS011;22411;53.016;18.632;2023-06-22T10:19:09;2.40;;;0.63;;
36379;SDS011;22411;53.016;18.632;2023-06-22T10:21:35;1.67;;;0.70;;
36379;SDS011;22411;53.016;18.632;2023-06-22T10:24:01;5.55;;;3.90;;
36379;SDS011;22411;53.016;18.632;2023-06-22T10:26:34;2.25;;;0.63;;
36379;SDS011;22411;53.016;18.632;2023-06-22T10:29:01;1.77;;;0.80;;
36379;SDS011;22411;53.016;18.632;2023-06-22T10:31:28;4.40;;;0.80;;
36379;SDS011;22411;53.016;18.632;2023-06-22T10:33:54;2.25;;;0.60;;
36379;SDS011;22411;53.016;18.632;2023-06-22T10:36:20;1.65;;;0.90;;
36379;SDS011;22411;53.016;18.632;2023-06-22T10:38:46;1.50;;;0.50;;
36379;SDS011;22411;53.016;18.632;2023-06-22T10:41:13;2.53;;;0.90;;
36379;SDS011;22411;53.016;18.632;2023-06-22T10:43:39;1.90;;;0.70;;
36379;SDS011;22411;53.016;18.632;2023-06-22T10:46:05;1.98;;;0.50;;
36379;SDS011;22411;53.016;18.632;2023-06-22T10:48:31;2.03;;;0.60;;
36379;SDS011;22411;53.016;18.632;2023-06-22T10:50:57;5.00;;;0.80;;
36379;SDS011;22411;53.016;18.632;2023-06-22T10:53:23;2.28;;;0.85;;
36379;SDS011;22411;53.016;18.632;2023-06-22T10:55:48;2.53;;;0.57;;
36379;SDS011;22411;53.016;18.632;2023-06-22T10:58:15;1.67;;;0.85;;
36379;SDS011;22411;53.016;18.632;2023-06-22T11:00:40;2.90;;;1.33;;
36379;SDS011;22411;53.016;18.632;2023-06-22T11:03:06;1.90;;;0.90;;
36379;SDS011;22411;53.016;18.632;2023-06-22T11:05:32;4.63;;;1.58;;
36379;SDS011;22411;53.016;18.632;2023-06-22T11:07:58;2.40;;;0.77;;
36379;SDS011;22411;53.016;18.632;2023-06-22T11:10:23;1.20;;;0.60;;
36379;SDS011;22411;53.016;18.632;2023-06-22T11:12:49;4.07;;;0.60;;
36379;SDS011;22411;53.016;18.632;2023-06-22T11:15:15;1.10;;;0.50;;
36379;SDS011;22411;53.016;18.632;2023-06-22T11:17:40;2.42;;;0.73;;
36379;SDS011;22411;53.016;18.632;2023-06-22T11:20:06;2.75;;;0.70;;
36379;SDS011;22411;53.016;18.632;2023-06-22T11:22:36;2.75;;;0.55;;
36379;SDS011;22411;53.016;18.632;2023-06-22T11:25:03;2.60;;;0.73;;
36379;SDS011;22411;53.016;18.632;2023-06-22T11:27:29;2.60;;;0.85;;
36379;SDS011;22411;53.016;18.632;2023-06-22T11:29:55;1.45;;;0.65;;
36379;SDS011;22411;53.016;18.632;2023-06-22T11:32:20;1.50;;;0.52;;
36379;SDS011;22411;53.016;18.632;2023-06-22T11:34:46;4.63;;;0.70;;
36379;SDS011;22411;53.016;18.632;2023-06-22T11:37:11;2.97;;;0.52;;
36379;SDS011;22411;53.016;18.632;2023-06-22T11:39:38;2.58;;;0.77;;
36379;SDS011;22411;53.016;18.632;2023-06-22T11:42:03;2.20;;;0.70;;
36379;SDS011;22411;53.016;18.632;2023-06-22T11:44:29;2.78;;;0.70;;
36379;SDS011;22411;53.016;18.632;2023-06-22T11:46:55;3.50;;;1.20;;
36379;SDS011;22411;53.016;18.632;2023-06-22T11:49:20;2.97;;;0.95;;
36379;SDS011;22411;53.016;18.632;2023-06-22T11:51:46;1.73;;;0.60;;
36379;SDS011;22411;53.016;18.632;2023-06-22T11:54:12;2.75;;;2.08;;
36379;SDS011;22411;53.016;18.632;2023-06-22T11:56:37;1.42;;;0.75;;
36379;SDS011;22411;53.016;18.632;2023-06-22T11:59:03;2.72;;;1.00;;
36379;SDS011;22411;53.016;18.632;2023-06-22T12:01:29;1.75;;;0.68;;
36379;SDS011;22411;53.016;18.632;2023-06-22T12:03:54;2.15;;;0.85;;
36379;SDS011;22411;53.016;18.632;2023-06-22T12:06:20;1.63;;;0.75;;
36379;SDS011;22411;53.016;18.632;2023-06-22T12:08:46;1.77;;;0.70;;
36379;SDS011;22411;53.016;18.632;2023-06-22T12:11:11;2.03;;;0.73;;
36379;SDS011;22411;53.016;18.632;2023-06-22T12:13:37;2.92;;;1.08;;
36379;SDS011;22411;53.016;18.632;2023-06-22T12:16:02;1.90;;;0.77;;
36379;SDS011;22411;53.016;18.632;2023-06-22T12:18:28;1.85;;;0.93;;
36379;SDS011;22411;53.016;18.632;2023-06-22T12:20:54;1.33;;;0.63;;
36379;SDS011;22411;53.016;18.632;2023-06-22T12:23:20;2.15;;;0.73;;
36379;SDS011;22411;53.016;18.632;2023-06-22T12:25:45;2.03;;;1.00;;
36379;SDS011;22411;53.016;18.632;2023-06-22T12:28:11;2.30;;;0.82;;
36379;SDS011;22411;53.016;18.632;2023-06-22T12:30:36;1.48;;;0.60;;
36379;SDS011;22411;53.016;18.632;2023-06-22T12:33:02;2.85;;;0.77;;
36379;SDS011;22411;53.016;18.632;2023-06-22T12:35:28;2.42;;;0.88;;
36379;SDS011;22411;53.016;18.632;2023-06-22T12:37:54;2.13;;;0.90;;
36379;SDS011;22411;53.016;18.632;2023-06-22T12:40:19;3.28;;;1.38;;
36379;SDS011;22411;53.016;18.632;2023-06-22T12:42:45;3.88;;;1.05;;
36379;SDS011;22411;53.016;18.632;2023-06-22T12:45:11;1.25;;;0.57;;
36379;SDS011;22411;53.016;18.632;2023-06-22T12:47:36;1.85;;;1.05;;
36379;SDS011;22411;53.016;18.632;2023-06-22T12:50:02;2.83;;;1.08;;
36379;SDS011;22411;53.016;18.632;2023-06-22T12:52:30;4.07;;;1.17;;
36379;SDS011;22411;53.016;18.632;2023-06-22T12:54:59;2.45;;;0.80;;
36379;SDS011;22411;53.016;18.632;2023-06-22T12:57:25;2.22;;;0.75;;
36379;SDS011;22411;53.016;18.632;2023-06-22T12:59:50;1.52;;;0.80;;
36379;SDS011;22411;53.016;18.632;2023-06-22T13:02:16;4.72;;;0.98;;
36379;SDS011;22411;53.016;18.632;2023-06-22T13:04:42;1.33;;;0.50;;
36379;SDS011;22411;53.016;18.632;2023-06-22T13:07:08;1.15;;;0.60;;
36379;SDS011;22411;53.016;18.632;2023-06-22T13:09:35;3.55;;;0.80;;
36379;SDS011;22411;53.016;18.632;2023-06-22T13:12:01;9.80;;;1.10;;
36379;SDS011;22411;53.016;18.632;2023-06-22T13:14:27;8.02;;;1.60;;
36379;SDS011;22411;53.016;18.632;2023-06-22T13:16:53;2.85;;;1.25;;
36379;SDS011;22411;53.016;18.632;2023-06-22T13:19:18;2.28;;;0.50;;
36379;SDS011;22411;53.016;18.632;2023-06-22T13:21:44;1.35;;;0.60;;
36379;SDS011;22411;53.016;18.632;2023-06-22T13:24:10;2.80;;;1.08;;
36379;SDS011;22411;53.016;18.632;2023-06-22T13:26:35;2.10;;;0.80;;
36379;SDS011;22411;53.016;18.632;2023-06-22T13:29:01;3.63;;;1.20;;
36379;SDS011;22411;53.016;18.632;2023-06-22T13:31:27;2.10;;;0.60;;
36379;SDS011;22411;53.016;18.632;2023-06-22T13:33:53;3.13;;;0.90;;
36379;SDS011;22411;53.016;18.632;2023-06-22T13:36:18;3.30;;;0.70;;
36379;SDS011;22411;53.016;18.632;2023-06-22T13:38:44;4.18;;;0.80;;
36379;SDS011;22411;53.016;18.632;2023-06-22T13:41:11;5.95;;;1.00;;
36379;SDS011;22411;53.016;18.632;2023-06-22T13:43:36;2.95;;;0.85;;
36379;SDS011;22411;53.016;18.632;2023-06-22T13:46:02;1.38;;;0.47;;
36379;SDS011;22411;53.016;18.632;2023-06-22T13:48:27;4.53;;;0.80;;
36379;SDS011;22411;53.016;18.632;2023-06-22T13:50:54;1.50;;;0.50;;
36379;SDS011;22411;53.016;18.632;2023-06-22T13:53:19;3.30;;;0.63;;
36379;SDS011;22411;53.016;18.632;2023-06-22T13:55:45;2.03;;;0.68;;
36379;SDS011;22411;53.016;18.632;2023-06-22T13:58:12;2.60;;;0.57;;
36379;SDS011;22411;53.016;18.632;2023-06-22T14:00:38;1.83;;;0.50;;
36379;SDS011;22411;53.016;18.632;2023-06-22T14:03:04;1.58;;;0.73;;
36379;SDS011;22411;53.016;18.632;2023-06-22T14:05:30;3.63;;;0.55;;
36379;SDS011;22411;53.016;18.632;2023-06-22T14:07:55;2.25;;;0.60;;
36379;SDS011;22411;53.016;18.632;2023-06-22T14:10:21;1.60;;;0.60;;
36379;SDS011;22411;53.016;18.632;2023-06-22T14:12:47;1.38;;;0.65;;
36379;SDS011;22411;53.016;18.632;2023-06-22T14:15:12;3.90;;;0.60;;
36379;SDS011;22411;53.016;18.632;2023-06-22T14:17:38;1.60;;;0.60;;
36379;SDS011;22411;53.016;18.632;2023-06-22T14:20:04;2.13;;;0.80;;
36379;SDS011;22411;53.016;18.632;2023-06-22T14:22:31;2.28;;;0.60;;
36379;SDS011;22411;53.016;18.632;2023-06-22T14:24:57;1.17;;;0.40;;
36379;SDS011;22411;53.016;18.632;2023-06-22T14:27:23;1.40;;;0.50;;
36379;SDS011;22411;53.016;18.632;2023-06-22T14:29:49;1.70;;;0.40;;
36379;SDS011;22411;53.016;18.632;2023-06-22T14:32:15;3.38;;;0.82;;
36379;SDS011;22411;53.016;18.632;2023-06-22T14:34:41;1.45;;;0.50;;
36379;SDS011;22411;53.016;18.632;2023-06-22T14:37:07;2.35;;;0.70;;
36379;SDS011;22411;53.016;18.632;2023-06-22T14:39:35;1.52;;;0.77;;
36379;SDS011;22411;53.016;18.632;2023-06-22T14:42:01;1.92;;;0.57;;